createdAt,value
2022-12-14T00:01:38.087Z,-1.30
2022-12-14T00:04:05.196Z,-1.30
2022-12-14T00:06:33.551Z,-1.40
2022-12-14T00:09:04.821Z,-1.40
2022-12-14T00:11:34.310Z,-1.50
2022-12-14T00:14:03.477Z,-1.50
2022-12-14T00:16:33.963Z,-1.50
2022-12-14T00:19:02.373Z,-1.50
2022-12-14T00:21:29.357Z,-1.50
2022-12-14T00:23:59.370Z,-1.40
2022-12-14T00:26:32.303Z,-1.40
2022-12-14T00:29:01.706Z,-1.50
2022-12-14T00:31:29.597Z,-1.50
2022-12-14T00:33:56.475Z,-1.50
2022-12-14T00:36:24.241Z,-1.50
2022-12-14T00:38:51.090Z,-1.50
2022-12-14T00:41:18.045Z,-1.50
2022-12-14T00:43:44.876Z,-1.40
2022-12-14T00:46:16.280Z,-1.60
2022-12-14T00:48:43.315Z,-1.60
2022-12-14T00:51:10.155Z,-1.60
2022-12-14T00:53:36.899Z,-1.60
2022-12-14T00:56:08.480Z,-1.70
2022-12-14T00:58:35.763Z,-1.70
2022-12-14T01:01:12.293Z,-1.70
2022-12-14T01:03:39.477Z,-1.80
2022-12-14T01:06:06.662Z,-1.80
2022-12-14T01:08:36.443Z,-1.80
2022-12-14T01:11:08.686Z,-1.90
2022-12-14T01:13:38.178Z,-1.90
2022-12-14T01:16:11.303Z,-1.90
2022-12-14T01:18:41.472Z,-1.90
2022-12-14T01:21:21.642Z,-1.80
2022-12-14T01:23:53.058Z,-1.90
2022-12-14T01:26:21.090Z,-1.90
2022-12-14T01:28:52.409Z,-2.00
2022-12-14T01:31:23.154Z,-2.00
2022-12-14T01:33:50.026Z,-1.90
2022-12-14T01:36:24.203Z,-1.90
2022-12-14T01:39:06.851Z,-1.90
2022-12-14T01:41:39.199Z,-1.90
2022-12-14T01:44:09.049Z,-1.80
2022-12-14T01:46:38.786Z,-1.80
2022-12-14T01:49:33.729Z,-1.90
2022-12-14T01:52:21.510Z,-1.80
2022-12-14T01:54:57.777Z,-1.80
2022-12-14T01:57:38.065Z,-1.80
2022-12-14T02:00:09.996Z,-1.90
2022-12-14T02:02:42.610Z,-1.90
2022-12-14T02:05:12.456Z,-1.90
2022-12-14T02:07:43.297Z,-1.90
2022-12-14T02:10:16.922Z,-1.90
2022-12-14T02:12:50.872Z,-2.00
2022-12-14T02:15:18.619Z,-2.00
2022-12-14T02:17:47.240Z,-1.90
2022-12-14T02:20:16.698Z,-2.00
2022-12-14T02:23:14.619Z,-2.00
2022-12-14T02:26:12.528Z,-2.00
2022-12-14T02:29:21.923Z,-2.00
2022-12-14T02:32:09.898Z,-2.00
2022-12-14T02:35:17.902Z,-2.00
2022-12-14T02:38:03.246Z,-2.10
2022-12-14T02:40:38.925Z,-2.10
2022-12-14T02:43:29.571Z,-2.00
2022-12-14T02:46:29.868Z,-2.10
2022-12-14T02:49:43.918Z,-2.10
2022-12-14T02:53:01.499Z,-2.10
2022-12-14T02:55:53.756Z,-2.20
2022-12-14T02:58:30.349Z,-2.20
2022-12-14T03:00:58.024Z,-2.20
2022-12-14T03:03:25.796Z,-2.20
2022-12-14T03:06:01.019Z,-2.40
2022-12-14T03:08:34.215Z,-2.40
2022-12-14T03:11:06.940Z,-2.40
2022-12-14T03:13:56.007Z,-2.40
2022-12-14T03:16:31.055Z,-2.40
2022-12-14T03:19:01.326Z,-2.40
2022-12-14T03:21:36.699Z,-2.40
2022-12-14T03:24:12.527Z,-2.40
2022-12-14T03:27:23.845Z,-2.40
2022-12-14T03:29:59.531Z,-2.40
2022-12-14T03:32:31.799Z,-2.40
2022-12-14T03:35:17.911Z,-2.50
2022-12-14T03:38:00.478Z,-2.50
2022-12-14T03:40:37.477Z,-2.60
2022-12-14T03:43:35.847Z,-2.70
2022-12-14T03:46:15.722Z,-2.70
2022-12-14T03:48:57.746Z,-2.60
2022-12-14T03:51:38.648Z,-2.60
2022-12-14T03:54:21.174Z,-2.80
2022-12-14T03:56:56.345Z,-2.80
2022-12-14T03:59:48.687Z,-2.80
2022-12-14T04:02:40.724Z,-2.80
2022-12-14T04:05:29.358Z,-2.70
2022-12-14T04:08:06.040Z,-2.80
2022-12-14T04:11:01.591Z,-2.70
2022-12-14T04:14:00.802Z,-2.80
2022-12-14T04:16:56.462Z,-2.80
2022-12-14T04:19:35.336Z,-2.70
2022-12-14T04:22:15.322Z,-2.80
2022-12-14T04:25:15.378Z,-2.80
2022-12-14T04:27:50.589Z,-2.80
2022-12-14T04:30:17.951Z,-2.90
2022-12-14T04:32:56.510Z,-2.80
2022-12-14T04:35:33.914Z,-2.90
2022-12-14T04:38:12.439Z,-2.90
2022-12-14T04:40:59.300Z,-3.00
2022-12-14T04:43:36.599Z,-3.10
2022-12-14T04:46:14.777Z,-3.00
2022-12-14T04:49:02.963Z,-3.00
2022-12-14T04:51:47.202Z,-3.10
2022-12-14T04:54:38.182Z,-3.10
2022-12-14T04:57:55.210Z,-3.00
2022-12-14T05:00:22.226Z,-3.00
2022-12-14T05:03:25.725Z,-3.00
2022-12-14T05:06:27.914Z,-3.00
2022-12-14T05:09:18.966Z,-3.00
2022-12-14T05:12:15.824Z,-3.10
2022-12-14T05:14:55.753Z,-2.90
2022-12-14T05:17:22.547Z,-3.00
2022-12-14T05:19:50.929Z,-3.10
2022-12-14T05:22:18.894Z,-3.10
2022-12-14T05:24:45.720Z,-3.10
2022-12-14T05:27:12.915Z,-3.10
2022-12-14T05:29:39.734Z,-3.20
2022-12-14T05:32:06.618Z,-3.20
2022-12-14T05:34:34.110Z,-3.10
2022-12-14T05:37:00.922Z,-3.20
2022-12-14T05:39:27.781Z,-3.20
2022-12-14T05:41:54.599Z,-3.20
2022-12-14T05:44:21.663Z,-3.20
2022-12-14T05:46:48.639Z,-3.10
2022-12-14T05:49:15.562Z,-3.20
2022-12-14T05:51:42.602Z,-3.20
2022-12-14T05:54:09.487Z,-3.20
2022-12-14T05:56:36.317Z,-3.20
2022-12-14T05:59:03.417Z,-3.30
2022-12-14T06:01:30.368Z,-3.30
2022-12-14T06:03:57.372Z,-3.30
2022-12-14T06:06:24.418Z,-3.20
2022-12-14T06:08:51.275Z,-3.20
2022-12-14T06:11:22.473Z,-3.30
2022-12-14T06:13:49.490Z,-3.20
2022-12-14T06:16:26.447Z,-3.20
2022-12-14T06:18:57.073Z,-3.20
2022-12-14T06:21:28.282Z,-3.30
2022-12-14T06:23:56.779Z,-3.30
2022-12-14T06:26:24.486Z,-3.40
2022-12-14T06:28:51.468Z,-3.40
2022-12-14T06:31:25.474Z,-3.50
2022-12-14T06:33:53.247Z,-3.50
2022-12-14T06:36:27.011Z,-3.60
2022-12-14T06:38:55.685Z,-3.70
2022-12-14T06:41:24.500Z,-3.70
2022-12-14T06:43:52.011Z,-3.90
2022-12-14T06:46:22.056Z,-4.00
2022-12-14T06:48:51.773Z,-4.00
2022-12-14T06:51:19.521Z,-4.00
2022-12-14T06:53:49.739Z,-4.00
2022-12-14T06:56:18.615Z,-4.00
2022-12-14T06:58:46.514Z,-4.10
2022-12-14T07:01:20.841Z,-4.00
2022-12-14T07:03:50.619Z,-4.00
2022-12-14T07:06:17.805Z,-4.10
2022-12-14T07:08:45.248Z,-4.20
2022-12-14T07:11:15.090Z,-4.20
2022-12-14T07:13:42.335Z,-4.20
2022-12-14T07:16:29.826Z,-4.20
2022-12-14T07:18:57.420Z,-4.20
2022-12-14T07:21:25.339Z,-4.30
2022-12-14T07:23:52.890Z,-4.30
2022-12-14T07:26:24.064Z,-4.40
2022-12-14T07:28:52.315Z,-4.40
2022-12-14T07:31:23.170Z,-4.40
2022-12-14T07:33:57.727Z,-4.30
2022-12-14T07:36:28.078Z,-4.40
2022-12-14T07:38:56.111Z,-4.20
2022-12-14T07:41:30.997Z,-4.20
2022-12-14T07:44:00.596Z,-4.30
2022-12-14T07:46:30.245Z,-4.40
2022-12-14T07:48:59.374Z,-4.50
2022-12-14T07:51:30.825Z,-4.50
2022-12-14T07:53:58.822Z,-4.50
2022-12-14T07:56:30.126Z,-4.50
2022-12-14T07:58:59.782Z,-4.50
2022-12-14T08:01:30.803Z,-4.50
2022-12-14T08:04:06.221Z,-4.50
2022-12-14T08:06:34.258Z,-4.60
2022-12-14T08:09:01.776Z,-4.60
2022-12-14T08:11:29.171Z,-4.60
2022-12-14T08:13:59.441Z,-4.60
2022-12-14T08:16:27.974Z,-4.70
2022-12-14T08:18:57.107Z,-4.70
2022-12-14T08:21:25.765Z,-4.70
2022-12-14T08:23:54.708Z,-4.70
2022-12-14T08:26:23.038Z,-4.80
2022-12-14T08:28:50.055Z,-4.70
2022-12-14T08:31:21.016Z,-4.60
2022-12-14T08:33:49.451Z,-4.60
2022-12-14T08:36:27.834Z,-4.60
2022-12-14T08:38:57.769Z,-4.40
2022-12-14T08:41:26.743Z,-4.40
2022-12-14T08:43:56.883Z,-4.40
2022-12-14T08:46:26.120Z,-4.40
2022-12-14T08:48:55.026Z,-4.30
2022-12-14T08:51:24.449Z,-4.20
2022-12-14T08:53:52.880Z,-4.10
2022-12-14T08:56:23.826Z,-4.00
2022-12-14T08:58:51.228Z,-4.00
2022-12-14T09:01:28.341Z,-3.90
2022-12-14T09:04:05.386Z,-3.80
2022-12-14T09:06:36.819Z,-3.70
2022-12-14T09:09:10.469Z,-3.70
2022-12-14T09:11:42.303Z,-3.60
2022-12-14T09:14:09.130Z,-3.50
2022-12-14T09:16:37.469Z,-3.50
2022-12-14T09:19:04.319Z,-3.50
2022-12-14T09:21:31.593Z,-3.40
2022-12-14T09:23:59.933Z,-3.30
2022-12-14T09:26:28.058Z,-3.10
2022-12-14T09:28:57.877Z,-3.00
2022-12-14T09:31:27.900Z,-2.80
2022-12-14T09:33:56.536Z,-2.80
2022-12-14T09:36:28.391Z,-2.70
2022-12-14T09:38:56.510Z,-2.70
2022-12-14T09:41:35.473Z,-2.70
2022-12-14T09:44:24.724Z,-2.50
2022-12-14T09:47:10.720Z,-2.50
2022-12-14T09:50:02.344Z,-2.40
2022-12-14T09:52:54.351Z,-2.30
2022-12-14T09:55:35.155Z,-2.30
2022-12-14T09:58:25.846Z,-2.20
2022-12-14T10:01:20.795Z,-2.00
2022-12-14T10:04:41.374Z,-1.80
2022-12-14T10:07:34.959Z,-2.00
2022-12-14T10:10:13.799Z,-1.90
2022-12-14T10:12:51.420Z,-1.80
2022-12-14T10:15:42.899Z,-1.70
2022-12-14T10:18:58.367Z,-1.60
2022-12-14T10:21:25.584Z,-1.50
2022-12-14T10:24:02.528Z,-1.30
2022-12-14T10:26:46.185Z,-1.20
2022-12-14T10:30:08.724Z,-1.20
2022-12-14T10:32:39.162Z,-1.20
2022-12-14T10:35:17.642Z,-1.20
2022-12-14T10:38:06.587Z,-1.10
2022-12-14T10:40:35.388Z,-1.10
2022-12-14T10:43:22.585Z,-1.10
2022-12-14T10:46:10.073Z,-1.00
2022-12-14T10:49:32.493Z,-0.90
2022-12-14T10:52:21.683Z,-0.80
2022-12-14T10:55:00.575Z,-0.60
2022-12-14T10:57:28.293Z,-0.60
2022-12-14T11:00:08.467Z,-0.50
2022-12-14T11:02:45.792Z,-0.60
2022-12-14T11:06:04.472Z,-0.50
2022-12-14T11:08:49.488Z,-0.50
2022-12-14T11:11:24.241Z,-0.50
2022-12-14T11:14:09.317Z,-0.30
2022-12-14T11:16:39.987Z,-0.20
2022-12-14T11:19:25.391Z,0.00
2022-12-14T11:22:15.844Z,0.00
2022-12-14T11:24:48.458Z,0.10
2022-12-14T11:27:20.965Z,0.10
2022-12-14T11:29:50.890Z,0.10
2022-12-14T11:32:24.039Z,0.20
2022-12-14T11:34:57.816Z,0.30
2022-12-14T11:37:31.492Z,0.20
2022-12-14T11:40:05.979Z,0.30
2022-12-14T11:42:34.141Z,0.20
2022-12-14T11:45:33.295Z,0.20
2022-12-14T11:48:15.231Z,0.30
2022-12-14T11:50:44.526Z,0.30
2022-12-14T11:53:15.505Z,0.30
2022-12-14T11:55:58.745Z,0.40
2022-12-14T11:58:32.469Z,0.50
2022-12-14T12:01:02.964Z,0.40
2022-12-14T12:03:42.699Z,0.30
2022-12-14T12:06:14.443Z,0.30
2022-12-14T12:08:44.596Z,0.40
2022-12-14T12:11:16.310Z,0.50
2022-12-14T12:13:47.987Z,0.50
2022-12-14T12:16:23.618Z,0.50
2022-12-14T12:19:12.436Z,0.60
2022-12-14T12:21:44.994Z,0.60
2022-12-14T12:24:22.114Z,0.60
2022-12-14T12:27:13.510Z,0.70
2022-12-14T12:30:15.967Z,0.70
2022-12-14T12:32:53.458Z,0.60
2022-12-14T12:35:49.638Z,0.60
2022-12-14T12:38:41.753Z,0.70
2022-12-14T12:41:20.554Z,0.60
2022-12-14T12:44:02.979Z,0.60
2022-12-14T12:47:22.246Z,0.70
2022-12-14T12:49:35.069Z,0.70
2022-12-14T12:52:15.526Z,0.90
2022-12-14T12:55:01.534Z,1.00
2022-12-14T12:57:36.595Z,1.00
2022-12-14T13:00:06.251Z,0.90
2022-12-14T13:02:46.016Z,0.90
2022-12-14T13:05:45.568Z,0.90
2022-12-14T13:08:28.719Z,1.00
2022-12-14T13:11:25.213Z,1.10
2022-12-14T13:14:05.330Z,1.00
2022-12-14T13:16:38.988Z,0.90
2022-12-14T13:19:49.710Z,1.00
2022-12-14T13:22:15.389Z,1.00
2022-12-14T13:24:48.002Z,0.90
2022-12-14T13:28:06.698Z,1.00
2022-12-14T13:31:01.090Z,1.00
2022-12-14T13:33:52.071Z,1.00
2022-12-14T13:36:55.684Z,1.00
2022-12-14T13:40:29.423Z,1.00
2022-12-14T13:43:15.694Z,1.00
2022-12-14T13:45:49.866Z,0.90
2022-12-14T13:48:34.852Z,0.90
2022-12-14T13:51:08.815Z,1.00
2022-12-14T13:53:48.194Z,1.00
2022-12-14T13:56:32.491Z,1.00
2022-12-14T13:59:04.704Z,1.00
2022-12-14T14:01:46.711Z,1.00
2022-12-14T14:04:16.608Z,1.00
2022-12-14T14:06:52.396Z,1.00
2022-12-14T14:09:34.216Z,0.90
2022-12-14T14:12:38.975Z,1.00
2022-12-14T14:15:08.796Z,1.00
2022-12-14T14:17:41.283Z,0.90
2022-12-14T14:20:46.874Z,0.90
2022-12-14T14:23:16.531Z,0.90
2022-12-14T14:25:51.449Z,0.90
2022-12-14T14:28:23.309Z,0.90
2022-12-14T14:30:56.645Z,0.80
2022-12-14T14:33:44.662Z,0.80
2022-12-14T14:36:33.414Z,0.70
2022-12-14T14:39:54.838Z,0.60
2022-12-14T14:42:22.851Z,0.50
2022-12-14T14:44:56.754Z,0.50
2022-12-14T14:47:33.130Z,0.50
2022-12-14T14:50:35.160Z,0.40
2022-12-14T14:53:26.275Z,0.30
2022-12-14T14:56:02.897Z,0.40
2022-12-14T14:58:37.431Z,0.40
2022-12-14T15:01:25.147Z,0.40
2022-12-14T15:04:18.467Z,0.30
2022-12-14T15:07:03.932Z,0.30
2022-12-14T15:10:22.348Z,0.20
2022-12-14T15:13:03.713Z,0.10
2022-12-14T15:15:41.928Z,-0.10
2022-12-14T15:18:27.811Z,-0.10
2022-12-14T15:21:13.499Z,-0.20
2022-12-14T15:23:50.147Z,-0.20
2022-12-14T15:26:25.150Z,-0.30
2022-12-14T15:28:58.109Z,-0.20
2022-12-14T15:31:40.135Z,-0.30
2022-12-14T15:34:13.590Z,-0.30
2022-12-14T15:36:42.561Z,-0.60
2022-12-14T15:39:43.561Z,-0.70
2022-12-14T15:42:15.703Z,-0.90
2022-12-14T15:44:51.157Z,-0.80
2022-12-14T15:47:30.616Z,-0.80
2022-12-14T15:50:22.112Z,-0.80
2022-12-14T15:52:55.683Z,-0.80
2022-12-14T15:55:40.745Z,-0.70
2022-12-14T15:58:17.438Z,-0.80
2022-12-14T16:00:49.275Z,-0.90
2022-12-14T16:03:24.250Z,-0.90
2022-12-14T16:05:51.768Z,-1.10
2022-12-14T16:08:19.098Z,-1.00
2022-12-14T16:10:56.891Z,-1.10
2022-12-14T16:13:43.282Z,-1.10
2022-12-14T16:16:13.363Z,-1.10
2022-12-14T16:18:50.998Z,-1.10
2022-12-14T16:21:33.407Z,-1.10
2022-12-14T16:24:20.887Z,-1.30
2022-12-14T16:26:58.182Z,-1.40
2022-12-14T16:29:30.381Z,-1.50
2022-12-14T16:32:16.049Z,-1.60
2022-12-14T16:34:58.994Z,-1.60
2022-12-14T16:37:34.237Z,-1.60
2022-12-14T16:40:01.602Z,-1.70
2022-12-14T16:42:32.137Z,-1.70
2022-12-14T16:44:58.971Z,-1.70
2022-12-14T16:47:53.235Z,-1.80
2022-12-14T16:50:56.007Z,-1.80
2022-12-14T16:53:25.103Z,-1.80
2022-12-14T16:56:05.719Z,-1.90
2022-12-14T16:58:34.190Z,-2.00
2022-12-14T17:01:06.259Z,-2.10
2022-12-14T17:03:33.896Z,-2.20
2022-12-14T17:06:05.874Z,-2.10
2022-12-14T17:08:36.011Z,-2.20
2022-12-14T17:11:03.225Z,-2.20
2022-12-14T17:13:30.492Z,-2.20
2022-12-14T17:16:01.378Z,-2.20
2022-12-14T17:18:38.137Z,-2.20
2022-12-14T17:21:15.559Z,-2.30
2022-12-14T17:23:44.165Z,-2.30
2022-12-14T17:26:40.085Z,-2.30
2022-12-14T17:29:40.819Z,-2.40
2022-12-14T17:32:13.605Z,-2.40
2022-12-14T17:34:40.879Z,-2.40
2022-12-14T17:37:19.119Z,-2.50
2022-12-14T17:39:46.287Z,-2.50
2022-12-14T17:42:16.585Z,-2.60
2022-12-14T17:44:50.764Z,-2.60
2022-12-14T17:47:17.702Z,-2.70
2022-12-14T17:49:44.505Z,-2.70
2022-12-14T17:52:31.727Z,-2.60
2022-12-14T17:54:59.796Z,-2.70
2022-12-14T17:57:26.796Z,-2.80
2022-12-14T18:00:12.078Z,-2.90
2022-12-14T18:02:39.952Z,-2.90
2022-12-14T18:05:17.534Z,-3.00
2022-12-14T18:07:44.314Z,-2.90
2022-12-14T18:10:14.933Z,-2.90
2022-12-14T18:12:41.895Z,-3.00
2022-12-14T18:15:28.175Z,-3.00
2022-12-14T18:17:55.577Z,-3.00
2022-12-14T18:20:24.153Z,-3.10
2022-12-14T18:22:51.942Z,-3.10
2022-12-14T18:25:42.630Z,-3.10
2022-12-14T18:28:12.790Z,-3.10
2022-12-14T18:30:49.605Z,-3.20
2022-12-14T18:33:24.235Z,-3.20
2022-12-14T18:35:53.538Z,-3.20
2022-12-14T18:38:21.218Z,-3.20
2022-12-14T18:40:51.634Z,-3.30
2022-12-14T18:43:24.899Z,-3.30
2022-12-14T18:45:53.777Z,-3.30
2022-12-14T18:48:22.399Z,-3.40
2022-12-14T18:50:50.691Z,-3.40
2022-12-14T18:53:23.824Z,-3.50
2022-12-14T18:55:50.824Z,-3.50
2022-12-14T18:58:21.736Z,-3.50
2022-12-14T19:00:51.597Z,-3.30
2022-12-14T19:03:19.775Z,-3.30
2022-12-14T19:05:47.649Z,-3.40
2022-12-14T19:08:14.545Z,-3.50
2022-12-14T19:10:47.873Z,-3.60
2022-12-14T19:13:25.340Z,-3.60
2022-12-14T19:15:54.243Z,-3.70
2022-12-14T19:18:21.137Z,-3.80
2022-12-14T19:20:49.725Z,-3.80
2022-12-14T19:23:19.277Z,-3.70
2022-12-14T19:25:46.989Z,-3.80
2022-12-14T19:31:02.268Z,-3.70
2022-12-14T19:33:30.063Z,-3.80
2022-12-14T19:35:57.307Z,-3.80
2022-12-14T19:38:24.110Z,-3.80
2022-12-14T19:41:07.596Z,-3.80
2022-12-14T19:43:35.222Z,-3.80
2022-12-14T19:46:11.789Z,-3.70
2022-12-14T19:48:38.978Z,-3.70
2022-12-14T19:51:13.426Z,-3.70
2022-12-14T19:53:42.731Z,-3.80
2022-12-14T19:56:10.965Z,-3.80
2022-12-14T19:58:37.753Z,-3.80
2022-12-14T20:01:14.644Z,-3.80
2022-12-14T20:03:42.384Z,-3.80
2022-12-14T20:06:09.492Z,-3.80
2022-12-14T20:08:36.810Z,-3.80
2022-12-14T20:11:09.551Z,-3.80
2022-12-14T20:13:37.189Z,-3.80
2022-12-14T20:16:04.342Z,-3.90
2022-12-14T20:18:31.975Z,-3.90
2022-12-14T20:21:09.632Z,-3.90
2022-12-14T20:23:38.589Z,-3.90
2022-12-14T20:26:12.128Z,-3.90
2022-12-14T20:28:39.238Z,-3.90
2022-12-14T20:31:10.013Z,-3.90
2022-12-14T20:33:38.387Z,-4.00
2022-12-14T20:36:06.460Z,-4.00
2022-12-14T20:38:33.424Z,-4.00
2022-12-14T20:41:13.474Z,-4.00
2022-12-14T20:43:43.814Z,-3.90
2022-12-14T20:46:29.082Z,-3.80
2022-12-14T20:48:57.895Z,-3.70
2022-12-14T20:51:24.703Z,-3.70
2022-12-14T20:53:51.530Z,-3.70
2022-12-14T20:56:18.367Z,-3.60
2022-12-14T20:58:47.632Z,-3.60
2022-12-14T21:01:17.280Z,-3.60
2022-12-14T21:03:46.799Z,-3.50
2022-12-14T21:06:17.733Z,-3.60
2022-12-14T21:09:04.685Z,-3.60
2022-12-14T21:11:53.507Z,-3.50
2022-12-14T21:14:23.746Z,-3.50
2022-12-14T21:16:50.543Z,-3.50
2022-12-14T21:19:17.675Z,-3.50
2022-12-14T21:21:49.868Z,-3.60
2022-12-14T21:24:37.230Z,-3.70
2022-12-14T21:27:14.758Z,-3.70
2022-12-14T21:29:41.597Z,-3.70
2022-12-14T21:32:08.599Z,-3.80
2022-12-14T21:34:35.505Z,-3.80
2022-12-14T21:37:02.291Z,-3.80
2022-12-14T21:39:29.107Z,-3.70
2022-12-14T21:42:12.825Z,-3.80
2022-12-14T21:44:46.393Z,-3.70
2022-12-14T21:47:23.444Z,-3.80
2022-12-14T21:49:50.373Z,-3.90
2022-12-14T21:52:22.590Z,-4.00
2022-12-14T21:54:49.682Z,-3.90
2022-12-14T21:57:41.595Z,-3.90
2022-12-14T22:00:10.749Z,-3.90
2022-12-14T22:02:41.739Z,-3.90
2022-12-14T22:05:10.134Z,-3.90
2022-12-14T22:07:37.007Z,-4.00
2022-12-14T22:10:04.368Z,-3.90
2022-12-14T22:12:31.219Z,-3.90
2022-12-14T22:14:58.160Z,-4.00
2022-12-14T22:17:25.120Z,-4.00
2022-12-14T22:19:54.127Z,-4.00
2022-12-14T22:22:20.899Z,-3.90
2022-12-14T22:24:51.084Z,-3.90
2022-12-14T22:27:19.571Z,-4.00
2022-12-14T22:29:46.631Z,-4.10
2022-12-14T22:32:14.544Z,-4.10
2022-12-14T22:34:42.057Z,-4.10
2022-12-14T22:37:08.827Z,-4.10
2022-12-14T22:39:35.653Z,-4.10
2022-12-14T22:42:02.592Z,-4.00
2022-12-14T22:44:29.484Z,-4.10
2022-12-14T22:46:56.258Z,-4.30
2022-12-14T22:49:23.209Z,-4.40
2022-12-14T22:51:50.461Z,-4.30
2022-12-14T22:54:24.861Z,-4.30
2022-12-14T22:57:13.626Z,-4.30
2022-12-14T23:00:14.310Z,-4.30
2022-12-14T23:02:46.875Z,-4.30
2022-12-14T23:05:15.498Z,-4.40
2022-12-14T23:07:42.706Z,-4.40
2022-12-14T23:10:28.379Z,-4.40
2022-12-14T23:13:13.670Z,-4.40
2022-12-14T23:15:59.139Z,-4.30
2022-12-14T23:18:44.630Z,-4.30
2022-12-14T23:21:31.554Z,-4.40
2022-12-14T23:24:17.544Z,-4.50
2022-12-14T23:27:08.784Z,-4.40
2022-12-14T23:29:55.275Z,-4.40
2022-12-14T23:32:41.116Z,-4.40
2022-12-14T23:35:26.678Z,-4.40
2022-12-14T23:38:12.146Z,-4.40
2022-12-14T23:40:57.507Z,-4.40
2022-12-14T23:43:42.958Z,-4.50
2022-12-14T23:46:28.442Z,-4.60
2022-12-14T23:49:16.235Z,-4.50
2022-12-14T23:52:02.324Z,-4.50
2022-12-14T23:54:47.713Z,-4.50
2022-12-14T23:57:33.258Z,-4.40
